Airfield :
LOGIN :

Register | Disclaimer

   EN    FR    IT 

 










Legend :    VFR   Marginal VFR   IFR   Intensive IFR   Very Intensive IFR
Visi :
Ceiling :
>= 8 km
>= 3000ft
5 to 8 km
1000 to 3000 ft
1500m to 5 km
500 to 1000 ft
800 to 1500m
200 to 500 ft
< 800m
< 200 ft
Symbols :   Thunderstorms  Fog  Heavy snow  Heavy precipitations  Wind > 20 kt
SIGMETs :     Misc.  Thunderstorms  Icing  Turbulence  Mountain Waves  Volcanic Ashes






- Airport Elevation : 231 ft
- IATA code : WTN


EGXW - RAF Waddington

CURRENT METAR :
  • 291250Z 20017KT 9999 BKN010 OVC030 12/10 Q1006 TEMPO 6000 RA BKN006 RMK GRN TEMPO YLO1

EXPIRED METARs :
  • 291150Z 19018KT 9999 -RA BKN010 OVC040 11/10 Q1007 TEMPO 6000 RA RMK GRN TEMPO GRN
  • 291123Z 19017KT 9000 -RA SCT010 OVC032 11/09 Q1008 TEMPO 6000 RA RMK GRN TEMPO GRN
  • 291050Z 19014KT 9999 -RA FEW010 OVC034 10/09 Q1008 BECMG BKN010 RMK BLU BECMG GRN

TAF TAF EGXW
Valid from the 29 at 12:00 until the 30 at 06:00 UTC


291054Z 2912/3006 22017G27KT 9999 -RA BKN010
TEMPO 2912/2914 6000 RA BKN005
PROB40
TEMPO 2912/2914 4000 +RA BKN003
BECMG 2914/2916 NSW BKN020
PROB40
TEMPO 2914/2921 FEW015 BKN025
TEMPO 2921/3006 SCT010



MET'MAP, your aeronautical weather chart ! - Copyright ORBIFLY December 2007 - Disclaimer

ORBIFLY MET'MAP TEAM :

Programming & Development : Alexandra Zaïnal
Concept & original design : Baudouin d'Aumeries
Assistance for programming : Marc-Olivier Méhu
Technical & hardware support : Manuel Goepfert

Contact : metmap@orbifly.com




SOURCES & CREDITS :

   NOAA